createdAt,value
2022-09-14T00:01:45.466Z,17.10
2022-09-14T00:04:47.115Z,17.10
2022-09-14T00:07:48.824Z,17.00
2022-09-14T00:10:50.836Z,16.90
2022-09-14T00:13:53.415Z,16.80
2022-09-14T00:16:55.173Z,16.70
2022-09-14T00:19:57.002Z,16.60
2022-09-14T00:22:59.009Z,16.60
2022-09-14T00:26:09.090Z,16.60
2022-09-14T00:29:11.287Z,16.60
2022-09-14T00:32:12.986Z,16.60
2022-09-14T00:35:14.761Z,16.50
2022-09-14T00:38:16.370Z,16.50
2022-09-14T00:41:24.426Z,16.50
2022-09-14T00:44:29.024Z,16.40
2022-09-14T00:47:32.718Z,16.30
2022-09-14T00:50:34.628Z,16.30
2022-09-14T00:53:36.384Z,16.10
2022-09-14T00:56:38.183Z,16.20
2022-09-14T00:59:42.275Z,16.20
2022-09-14T01:02:44.556Z,16.00
2022-09-14T01:05:46.133Z,16.10
2022-09-14T01:09:26.755Z,16.00
2022-09-14T01:12:40.037Z,16.00
2022-09-14T01:16:09.758Z,15.90
2022-09-14T01:19:27.974Z,16.00
2022-09-14T01:22:42.106Z,15.90
2022-09-14T01:25:49.968Z,15.90
2022-09-14T01:29:06.454Z,15.90
2022-09-14T01:32:21.931Z,15.90
2022-09-14T01:35:29.563Z,15.90
2022-09-14T01:38:41.776Z,15.90
2022-09-14T01:41:45.632Z,15.80
2022-09-14T01:44:52.705Z,15.80
2022-09-14T01:47:58.175Z,15.80
2022-09-14T01:51:01.074Z,15.80
2022-09-14T01:54:14.161Z,15.90
2022-09-14T01:57:27.811Z,15.90
2022-09-14T02:00:30.929Z,15.80
2022-09-14T02:03:46.583Z,15.80
2022-09-14T02:06:49.562Z,15.90
2022-09-14T02:09:52.526Z,15.90
2022-09-14T02:12:55.342Z,15.90
2022-09-14T02:15:57.077Z,15.90
2022-09-14T02:19:01.775Z,15.90
2022-09-14T02:22:03.780Z,15.90
2022-09-14T02:25:05.821Z,15.90
2022-09-14T02:28:08.201Z,15.90
2022-09-14T02:31:17.856Z,15.90
2022-09-14T02:34:40.682Z,15.90
2022-09-14T02:37:53.647Z,15.80
2022-09-14T02:41:07.376Z,15.80
2022-09-14T02:44:34.670Z,15.80
2022-09-14T02:48:00.321Z,15.80
2022-09-14T02:51:25.565Z,15.70
2022-09-14T02:54:36.536Z,15.70
2022-09-14T02:58:08.012Z,15.60
2022-09-14T03:01:21.229Z,15.70
2022-09-14T03:04:23.172Z,15.60
2022-09-14T03:07:24.829Z,15.60
2022-09-14T03:10:27.330Z,15.60
2022-09-14T03:13:29.016Z,15.70
2022-09-14T03:16:30.692Z,15.60
2022-09-14T03:19:32.465Z,15.70
2022-09-14T03:22:34.192Z,15.60
2022-09-14T03:25:43.818Z,15.70
2022-09-14T03:28:50.165Z,15.60
2022-09-14T03:31:51.869Z,15.60
2022-09-14T03:34:53.557Z,15.70
2022-09-14T03:37:55.162Z,15.70
2022-09-14T03:41:00.079Z,15.70
2022-09-14T03:44:01.923Z,15.60
2022-09-14T03:47:03.655Z,15.70
2022-09-14T03:50:06.419Z,15.70
2022-09-14T03:53:08.253Z,15.70
2022-09-14T03:56:16.722Z,15.70
2022-09-14T03:59:18.598Z,15.70
2022-09-14T04:02:20.314Z,15.70
2022-09-14T04:05:22.194Z,15.70
2022-09-14T04:08:24.112Z,15.70
2022-09-14T04:11:26.511Z,15.70
2022-09-14T04:14:28.113Z,15.70
2022-09-14T04:17:30.047Z,15.70
2022-09-14T04:20:33.939Z,15.70
2022-09-14T04:23:42.314Z,15.60
2022-09-14T04:26:52.887Z,15.50
2022-09-14T04:29:54.556Z,15.80
2022-09-14T04:32:56.232Z,15.80
2022-09-14T04:36:18.585Z,15.70
2022-09-14T04:39:20.581Z,15.70
2022-09-14T04:42:22.328Z,15.70
2022-09-14T04:45:24.109Z,15.80
2022-09-14T04:48:25.753Z,15.70
2022-09-14T04:51:30.354Z,15.20
2022-09-14T04:54:32.078Z,15.50
2022-09-14T04:57:33.718Z,15.60
2022-09-14T05:00:36.808Z,15.60
2022-09-14T05:03:39.529Z,15.80
2022-09-14T05:06:42.933Z,15.60
2022-09-14T05:09:45.007Z,15.90
2022-09-14T05:12:46.841Z,15.40
2022-09-14T05:15:48.601Z,15.90
2022-09-14T05:18:51.774Z,15.80
2022-09-14T05:21:53.487Z,15.40
2022-09-14T05:24:55.103Z,15.90
2022-09-14T05:27:56.739Z,15.60
2022-09-14T05:30:58.518Z,15.80
2022-09-14T05:34:00.410Z,15.70
2022-09-14T05:37:02.059Z,15.50
2022-09-14T05:40:05.696Z,15.50
2022-09-14T05:43:07.681Z,15.50
2022-09-14T05:46:20.014Z,15.60
2022-09-14T05:49:21.737Z,15.50
2022-09-14T05:52:26.513Z,15.60
2022-09-14T05:55:28.500Z,15.40
2022-09-14T05:58:30.515Z,15.30
2022-09-14T06:01:32.949Z,15.20
2022-09-14T06:04:36.022Z,15.00
2022-09-14T06:07:37.680Z,14.90
2022-09-14T06:10:39.412Z,14.90
2022-09-14T06:13:44.829Z,14.90
2022-09-14T06:16:46.866Z,15.10
2022-09-14T06:19:48.521Z,14.90
2022-09-14T06:22:50.134Z,15.00
2022-09-14T06:25:54.833Z,14.80
2022-09-14T06:28:56.731Z,14.90
2022-09-14T06:31:58.457Z,15.00
2022-09-14T06:35:12.679Z,15.20
2022-09-14T06:38:14.931Z,15.00
2022-09-14T06:41:19.206Z,15.00
2022-09-14T06:44:23.122Z,14.90
2022-09-14T06:47:24.856Z,15.00
2022-09-14T06:50:27.169Z,15.20
2022-09-14T06:53:29.288Z,15.10
2022-09-14T06:56:36.970Z,15.30
2022-09-14T06:59:38.568Z,15.10
2022-09-14T07:02:40.226Z,15.10
2022-09-14T07:05:41.929Z,15.10
2022-09-14T07:08:44.244Z,15.10
2022-09-14T07:11:46.239Z,15.10
2022-09-14T07:14:47.973Z,15.10
2022-09-14T07:17:49.706Z,15.60
2022-09-14T07:21:48.018Z,15.20
2022-09-14T07:24:50.377Z,14.90
2022-09-14T07:27:52.006Z,14.70
2022-09-14T07:30:58.307Z,14.80
2022-09-14T07:34:03.235Z,15.20
2022-09-14T07:37:04.981Z,14.80
2022-09-14T07:40:07.359Z,14.80
2022-09-14T07:43:09.112Z,14.70
2022-09-14T07:46:10.773Z,14.60
2022-09-14T07:49:12.935Z,14.50
2022-09-14T07:52:14.532Z,14.50
2022-09-14T07:55:16.732Z,14.00
2022-09-14T07:58:18.354Z,14.20
2022-09-14T08:01:20.097Z,14.40
2022-09-14T08:04:21.881Z,13.90
2022-09-14T08:07:24.641Z,14.40
2022-09-14T08:10:26.268Z,14.60
2022-09-14T08:13:27.892Z,14.60
2022-09-14T08:16:31.226Z,14.60
2022-09-14T08:19:33.098Z,14.70
2022-09-14T08:22:34.910Z,14.60
2022-09-14T08:25:36.532Z,14.60
2022-09-14T08:28:38.585Z,14.60
2022-09-14T08:31:40.986Z,14.70
2022-09-14T08:34:43.688Z,14.40
2022-09-14T08:37:45.276Z,14.70
2022-09-14T08:40:47.373Z,14.60
2022-09-14T08:43:49.106Z,14.70
2022-09-14T08:46:57.918Z,14.70
2022-09-14T08:50:08.414Z,14.70
2022-09-14T08:53:10.169Z,14.70
2022-09-14T08:56:23.352Z,15.20
2022-09-14T08:59:28.001Z,14.60
2022-09-14T09:02:53.853Z,14.60
2022-09-14T09:06:06.553Z,14.60
2022-09-14T09:09:29.296Z,14.60
2022-09-14T09:12:38.098Z,14.60
2022-09-14T09:15:49.845Z,14.70
2022-09-14T09:19:01.840Z,14.70
2022-09-14T09:22:06.132Z,14.80
2022-09-14T09:25:17.213Z,14.80
2022-09-14T09:28:21.437Z,14.80
2022-09-14T09:31:32.808Z,14.70
2022-09-14T09:34:35.572Z,14.70
2022-09-14T09:37:39.459Z,14.70
2022-09-14T09:40:47.204Z,14.60
2022-09-14T09:44:00.404Z,14.90
2022-09-14T09:47:02.566Z,14.70
2022-09-14T09:50:15.758Z,14.40
2022-09-14T09:53:20.902Z,14.70
2022-09-14T09:56:36.376Z,14.60
2022-09-14T09:59:44.135Z,14.70
2022-09-14T10:02:53.134Z,14.70
2022-09-14T10:06:03.402Z,14.90
2022-09-14T10:09:17.277Z,14.80
2022-09-14T10:12:19.473Z,14.80
2022-09-14T10:15:27.418Z,14.70
2022-09-14T10:18:30.388Z,14.80
2022-09-14T10:21:32.067Z,14.90
2022-09-14T10:24:37.443Z,14.90
2022-09-14T10:27:46.093Z,14.80
2022-09-14T10:31:00.718Z,14.90
2022-09-14T10:34:14.315Z,14.90
2022-09-14T10:37:58.021Z,15.00
2022-09-14T10:41:32.402Z,15.00
2022-09-14T10:44:33.928Z,14.90
2022-09-14T10:48:22.946Z,14.90
2022-09-14T10:56:20.575Z,14.90
2022-09-14T10:59:31.702Z,14.80
2022-09-14T11:02:47.471Z,14.80
2022-09-14T11:06:18.252Z,14.80
2022-09-14T11:09:24.679Z,14.80
2022-09-14T11:13:05.119Z,14.90
2022-09-14T11:16:35.706Z,14.90
2022-09-14T11:20:09.986Z,15.00
2022-09-14T11:23:36.491Z,15.00
2022-09-14T11:26:44.025Z,15.00
2022-09-14T11:29:59.717Z,14.90
2022-09-14T11:33:09.954Z,15.00
2022-09-14T11:36:38.061Z,14.90
2022-09-14T11:39:47.882Z,14.90
2022-09-14T11:42:56.314Z,15.00
2022-09-14T11:46:10.042Z,14.90
2022-09-14T11:49:18.704Z,14.90
2022-09-14T11:52:22.861Z,14.80
2022-09-14T11:55:24.608Z,14.80
2022-09-14T11:58:31.632Z,14.80
2022-09-14T12:01:38.446Z,14.80
2022-09-14T12:05:05.965Z,15.00
2022-09-14T12:08:30.873Z,14.80
2022-09-14T12:11:34.688Z,14.80
2022-09-14T12:14:40.466Z,14.80
2022-09-14T12:18:13.317Z,14.60
2022-09-14T12:21:25.675Z,14.80
2022-09-14T12:24:27.367Z,14.80
2022-09-14T12:27:35.939Z,14.80
2022-09-14T12:30:42.663Z,14.80
2022-09-14T12:34:04.579Z,14.80
2022-09-14T12:37:30.465Z,14.90
2022-09-14T12:40:37.405Z,14.80
2022-09-14T12:43:42.048Z,14.80
2022-09-14T12:46:43.735Z,14.90
2022-09-14T12:49:46.505Z,14.50
2022-09-14T12:53:10.415Z,15.30
2022-09-14T12:56:30.144Z,14.80
2022-09-14T12:59:54.268Z,14.90
2022-09-14T13:03:13.908Z,14.90
2022-09-14T13:06:15.894Z,14.90
2022-09-14T13:09:22.684Z,14.20
2022-09-14T13:12:45.279Z,15.00
2022-09-14T13:15:55.833Z,15.00
2022-09-14T13:19:04.628Z,15.00
2022-09-14T13:22:19.791Z,14.60
2022-09-14T13:25:34.279Z,14.80
2022-09-14T13:28:35.979Z,15.00
2022-09-14T13:31:39.449Z,14.80
2022-09-14T13:34:41.171Z,15.00
2022-09-14T13:37:47.586Z,15.00
2022-09-14T13:40:52.375Z,15.00
2022-09-14T13:43:55.976Z,14.70
2022-09-14T13:47:01.228Z,15.00
2022-09-14T13:50:03.065Z,15.00
2022-09-14T13:53:04.896Z,15.00
2022-09-14T13:56:22.782Z,14.70
2022-09-14T13:59:32.637Z,14.90
2022-09-14T14:02:36.400Z,15.00
2022-09-14T14:05:42.572Z,14.90
2022-09-14T14:08:44.268Z,14.80
2022-09-14T14:11:55.044Z,14.80
2022-09-14T14:15:01.153Z,14.80
2022-09-14T14:18:41.990Z,14.60
2022-09-14T14:21:43.804Z,14.60
2022-09-14T14:28:23.567Z,14.30
2022-09-14T14:31:26.313Z,14.60
2022-09-14T14:34:29.197Z,14.30
2022-09-14T14:37:31.068Z,14.60
2022-09-14T14:40:33.529Z,14.60
2022-09-14T14:43:35.888Z,14.60
2022-09-14T14:46:37.508Z,14.50
2022-09-14T14:49:39.221Z,14.20
2022-09-14T14:52:42.773Z,13.80
2022-09-14T14:55:44.677Z,14.30
2022-09-14T14:58:47.646Z,14.40
2022-09-14T15:01:51.929Z,14.30
2022-09-14T15:04:53.555Z,14.40
2022-09-14T15:07:56.009Z,14.40
2022-09-14T15:10:58.765Z,14.30
2022-09-14T15:14:00.353Z,14.40
2022-09-14T15:17:02.704Z,14.40
2022-09-14T15:20:04.652Z,14.50
2022-09-14T15:23:06.312Z,14.50
2022-09-14T15:26:08.068Z,14.20
2022-09-14T15:29:13.196Z,14.60
2022-09-14T15:32:14.809Z,14.60
2022-09-14T15:35:16.564Z,14.60
2022-09-14T15:38:18.168Z,14.60
2022-09-14T15:41:59.052Z,14.60
2022-09-14T15:45:00.764Z,14.60
2022-09-14T15:48:02.725Z,14.60
2022-09-14T15:51:10.437Z,14.50
2022-09-14T15:54:12.887Z,14.50
2022-09-14T15:57:14.534Z,14.40
2022-09-14T16:00:16.231Z,14.50
2022-09-14T16:03:17.867Z,14.50
2022-09-14T16:06:19.796Z,14.50
2022-09-14T16:09:22.568Z,14.50
2022-09-14T16:12:24.205Z,14.30
2022-09-14T16:15:25.993Z,14.40
2022-09-14T16:18:27.621Z,14.40
2022-09-14T16:21:29.945Z,14.60
2022-09-14T16:24:32.000Z,14.30
2022-09-14T16:27:33.805Z,14.30
2022-09-14T16:30:35.453Z,14.20
2022-09-14T16:33:42.622Z,14.20
2022-09-14T16:36:59.503Z,14.20
2022-09-14T16:40:01.396Z,14.10
2022-09-14T16:43:03.431Z,14.20
2022-09-14T16:46:08.008Z,14.20
2022-09-14T16:49:09.959Z,14.20
2022-09-14T16:52:11.667Z,14.20
2022-09-14T16:55:13.299Z,14.30
2022-09-14T16:58:15.463Z,14.30
2022-09-14T17:01:24.160Z,14.20
2022-09-14T17:04:26.244Z,14.20
2022-09-14T17:07:27.965Z,14.20
2022-09-14T17:10:34.360Z,14.20
2022-09-14T17:13:52.725Z,14.10
2022-09-14T17:16:54.915Z,14.20
2022-09-14T17:19:56.623Z,14.20
2022-09-14T17:22:58.202Z,14.20
2022-09-14T17:26:00.401Z,14.20
2022-09-14T17:29:03.624Z,14.20
2022-09-14T17:32:05.457Z,14.00
2022-09-14T17:35:08.008Z,14.10
2022-09-14T17:38:09.733Z,14.10
2022-09-14T17:41:19.272Z,14.20
2022-09-14T17:44:21.761Z,14.20
2022-09-14T17:47:24.235Z,14.10
2022-09-14T17:50:25.993Z,14.50
2022-09-14T17:53:27.616Z,14.10
2022-09-14T17:56:30.231Z,14.00
2022-09-14T17:59:31.994Z,14.00
2022-09-14T18:02:36.576Z,14.00
2022-09-14T18:05:38.210Z,14.00
2022-09-14T18:08:40.202Z,14.00
2022-09-14T18:11:45.941Z,13.90
2022-09-14T18:14:47.535Z,13.90
2022-09-14T18:17:50.479Z,13.90
2022-09-14T18:20:54.854Z,13.90
2022-09-14T18:23:57.049Z,13.90
2022-09-14T18:26:59.444Z,13.90
2022-09-14T18:30:02.652Z,14.00
2022-09-14T18:33:04.815Z,13.90
2022-09-14T18:36:07.231Z,14.00
2022-09-14T18:39:09.823Z,13.90
2022-09-14T18:42:11.429Z,13.90
2022-09-14T18:45:13.191Z,13.90
2022-09-14T18:48:17.916Z,13.90
2022-09-14T18:51:20.072Z,13.90
2022-09-14T18:54:27.325Z,13.90
2022-09-14T18:57:29.294Z,13.90
2022-09-14T19:00:31.052Z,13.90
2022-09-14T19:03:33.089Z,13.80
2022-09-14T19:06:36.157Z,13.60
2022-09-14T19:09:37.813Z,13.70
2022-09-14T19:12:39.902Z,13.80
2022-09-14T19:15:44.297Z,13.80
2022-09-14T19:18:47.697Z,13.80
2022-09-14T19:21:49.304Z,13.80
2022-09-14T19:24:51.592Z,13.70
2022-09-14T19:27:59.438Z,13.70
2022-09-14T19:31:06.503Z,13.80
2022-09-14T19:34:11.187Z,13.80
2022-09-14T19:37:12.799Z,13.70
2022-09-14T19:40:15.131Z,13.70
2022-09-14T19:43:16.864Z,13.70
2022-09-14T19:46:20.578Z,13.70
2022-09-14T19:49:34.180Z,13.70
2022-09-14T19:52:35.861Z,13.60
2022-09-14T19:55:37.685Z,13.60
2022-09-14T19:58:44.892Z,13.60
2022-09-14T20:01:47.183Z,13.50
2022-09-14T20:04:48.918Z,13.60
2022-09-14T20:07:50.553Z,13.50
2022-09-14T20:10:52.139Z,13.50
2022-09-14T20:13:55.583Z,13.50
2022-09-14T20:16:58.944Z,13.50
2022-09-14T20:20:00.629Z,13.50
2022-09-14T20:23:02.306Z,13.50
2022-09-14T20:26:06.019Z,13.50
2022-09-14T20:29:08.357Z,13.40
2022-09-14T20:32:09.997Z,13.40
2022-09-14T20:35:13.071Z,13.40
2022-09-14T20:38:14.675Z,13.50
2022-09-14T20:41:17.922Z,13.40
2022-09-14T20:44:22.988Z,13.40
2022-09-14T20:47:24.761Z,13.40
2022-09-14T20:50:26.364Z,13.40
2022-09-14T20:53:29.593Z,13.70
2022-09-14T20:56:33.309Z,13.40
2022-09-14T20:59:34.908Z,13.40
2022-09-14T21:02:37.539Z,13.40
2022-09-14T21:05:39.299Z,13.40
2022-09-14T21:08:44.248Z,13.40
2022-09-14T21:11:47.249Z,13.30
2022-09-14T21:14:48.900Z,13.40
2022-09-14T21:17:50.502Z,13.40
2022-09-14T21:20:52.148Z,13.30
2022-09-14T21:23:59.647Z,13.30
2022-09-14T21:27:01.492Z,13.60
2022-09-14T21:30:03.279Z,13.60
2022-09-14T21:33:04.893Z,13.30
2022-09-14T21:36:09.676Z,13.30
2022-09-14T21:39:14.665Z,13.30
2022-09-14T21:42:38.138Z,13.20
2022-09-14T21:45:45.061Z,13.20
2022-09-14T21:48:46.902Z,13.40
2022-09-14T21:51:49.097Z,13.10
2022-09-14T21:54:50.716Z,13.10
2022-09-14T21:57:52.317Z,13.20
2022-09-14T22:01:01.605Z,13.10
2022-09-14T22:04:04.253Z,13.10
2022-09-14T22:07:06.181Z,13.10
2022-09-14T22:10:08.992Z,13.10
2022-09-14T22:13:26.456Z,13.20
2022-09-14T22:16:29.773Z,13.10
2022-09-14T22:19:32.096Z,13.20
2022-09-14T22:22:34.238Z,13.10
2022-09-14T22:25:39.363Z,13.10
2022-09-14T22:28:41.048Z,13.10
2022-09-14T22:31:44.689Z,13.20
2022-09-14T22:34:49.635Z,13.20
2022-09-14T22:37:51.326Z,13.30
2022-09-14T22:41:02.218Z,13.30
2022-09-14T22:44:04.971Z,13.30
2022-09-14T22:47:06.745Z,13.30
2022-09-14T22:50:08.734Z,13.30
2022-09-14T22:53:11.034Z,13.20
2022-09-14T22:56:31.218Z,13.20
2022-09-14T22:59:32.812Z,13.20
2022-09-14T23:02:34.579Z,13.00
2022-09-14T23:05:37.547Z,13.10
2022-09-14T23:08:39.459Z,13.10
2022-09-14T23:11:42.179Z,13.20
2022-09-14T23:14:43.806Z,13.10
2022-09-14T23:17:49.976Z,13.30
2022-09-14T23:20:53.922Z,12.80
2022-09-14T23:23:58.102Z,13.10
2022-09-14T23:26:59.764Z,13.10
2022-09-14T23:30:01.535Z,13.30
2022-09-14T23:33:03.457Z,12.90
2022-09-14T23:36:05.146Z,13.30
2022-09-14T23:39:06.784Z,13.10
2022-09-14T23:42:09.322Z,13.10
2022-09-14T23:45:11.676Z,13.10
2022-09-14T23:48:14.262Z,13.10
2022-09-14T23:51:15.945Z,12.80
2022-09-14T23:54:17.837Z,13.10
2022-09-14T23:57:19.500Z,13.10
